Time;durP1;ratioP1;P1;durP2;ratioP2;P2;SDS_P1;SDS_P2;PMS_P1;PMS_P2;Temp;Humidity;BMP_temperature;BMP_pressure;BME280_temperature;BME280_humidity;BME280_pressure;Samples;Min_cycle;Max_cycle;Signal;HPM_P1;HPM_P2
2021/12/25 00:00:05;;;;;;;;;;;;;;;;;;1047595;28;936;-41
2021/12/25 00:00:36;;;;;;;;;;;;;;;;;;1049543;28;1330;-41
2021/12/25 00:01:08;;;;;;;;;;;;;;;;;;1052447;28;822;-41
2021/12/25 00:01:40;;;;;;;;;;;;;;;;;;1052370;28;861;-41
2021/12/25 00:02:10;;;;;;;;;;;;;;;;;;1052515;28;921;-41
2021/12/25 00:02:41;;;;;;;;;;;;;;;;;;1051987;28;913;-41
2021/12/25 00:03:12;;;;;;;;;;;;;;;;;;1052179;28;826;-41
2021/12/25 00:03:42;;;;;;;;;;;;;;;;;;1052178;28;945;-41
2021/12/25 00:04:13;;;;;;;;;;;;;;;;;;1052076;28;846;-41
2021/12/25 00:04:43;;;;;;;;;;;;;;;;;;1052490;28;963;-41
2021/12/25 00:05:14;;;;;;;;;;;;;;;;;;1052594;28;814;-41
2021/12/25 00:05:45;;;;;;;;;;;;;;;;;;1052495;28;952;-41
2021/12/25 00:06:16;;;;;;;;;;;;;;;;;;1052596;28;891;-41
2021/12/25 00:06:47;;;;;;;;;;;;;;;;;;1052265;28;1630;-41
2021/12/25 00:07:17;;;;;;;;;;;;;;;;;;1052589;28;964;-41
2021/12/25 00:07:48;;;;;;;;;;;;;;;;;;1052601;28;949;-41
2021/12/25 00:08:19;;;;;;;;;;;;;;;;;;1052564;28;881;-42
2021/12/25 00:08:49;;;;;;;;;;;;;;;;;;1052457;28;834;-41
2021/12/25 00:09:20;;;;;;;;;;;;;;;;;;1052575;28;1238;-41
2021/12/25 00:09:50;;;;;;;;;;;;;;;;;;1052413;28;960;-41
2021/12/25 00:10:20;;;;;;;;;;;;;;;;;;1052490;28;940;-41
2021/12/25 00:10:51;;;;;;;;;;;;;;;;;;1052375;28;959;-42
2021/12/25 00:11:21;;;;;;;;;;;;;;;;;;1052530;28;1569;-41
2021/12/25 00:11:52;;;;;;;;;;;;;;;;;;1052472;28;940;-41
2021/12/25 00:12:22;;;;;;;;;;;;;;;;;;1052547;28;845;-41
2021/12/25 00:12:54;;;;;;;;;;;;;;;;;;1052418;28;869;-41
2021/12/25 00:13:25;;;;;;;;;;;;;;;;;;1051553;28;1707;-41
2021/12/25 00:13:55;;;;;;;;;;;;;;;;;;1052343;28;1032;-41
2021/12/25 00:14:25;;;;;;;;;;;;;;;;;;1052103;28;1913;-41
2021/12/25 00:14:56;;;;;;;;;;;;;;;;;;1051964;28;933;-41
2021/12/25 00:15:26;;;;;;;;;;;;;;;;;;1052229;28;869;-41
2021/12/25 00:15:57;;;;;;;;;;;;;;;;;;1051984;28;905;-42
2021/12/25 00:16:27;;;;;;;;;;;;;;;;;;1052502;28;845;-42
2021/12/25 00:16:58;;;;;;;;;;;;;;;;;;1052410;28;790;-41
2021/12/25 00:17:29;;;;;;;;;;;;;;;;;;1052487;28;1769;-41
2021/12/25 00:17:59;;;;;;;;;;;;;;;;;;1052456;28;1196;-41
2021/12/25 00:18:29;;;;;;;;;;;;;;;;;;1052437;28;941;-41
2021/12/25 00:19:00;;;;;;;;;;;;;;;;;;1052475;28;995;-41
2021/12/25 00:19:30;;;;;;;;;;;;;;;;;;1052443;28;971;-41
2021/12/25 00:20:00;;;;;;;;;;;;;;;;;;1048419;28;1144;-41
2021/12/25 00:20:31;;;;;;;;;;;;;;;;;;1048191;28;1454;-41
2021/12/25 00:21:02;;;;;;;;;;;;;;;;;;1048210;28;1601;-41
2021/12/25 00:21:32;;;;;;;;;;;;;;;;;;1047463;28;1105;-41
2021/12/25 00:22:02;;;;;;;;;;;;;;;;;;1049871;28;1180;-41
2021/12/25 00:22:33;;;;;;;;;;;;;;;;;;1047497;28;1356;-41
2021/12/25 00:23:05;;;;;;;;;;;;;;;;;;1051468;28;1156;-41
2021/12/25 00:23:36;;;;;;;;;;;;;;;;;;1051457;28;1273;-41
2021/12/25 00:24:07;;;;;;;;;;;;;;;;;;1052430;28;929;-41
2021/12/25 00:24:42;;;;;;;;;;;;;;;;;;1052369;28;1721;-41
2021/12/25 00:25:13;;;;;;;;;;;;;;;;;;1052384;28;798;-42
2021/12/25 00:25:49;;;;;;;;;;;;;;;;;;1052457;28;797;-41
2021/12/25 00:27:34;;;;;;;;;;;;;;;;;;1052039;28;898;-41
2021/12/25 00:28:59;;;;;;;;;;;;;;;;;;1036500;28;1264;-41
2021/12/25 00:29:50;;;;;;;;;;;;;;;;;;1039240;28;807;-42
2021/12/25 00:30:36;;;;;;;;;;;;;;;;;;1048187;28;854;-41
2021/12/25 00:31:53;;;;;;;;;;;;;;;;;;1047805;28;834;-41
2021/12/25 00:33:17;;;;;;;;;;;;;;;;;;1045793;28;886;-41
2021/12/25 00:34:15;;;;;;;;;;;;;;;;;;1047678;28;1905;-41
2021/12/25 00:34:45;;;;;;;;;;;;;;;;;;1047854;28;941;-42
2021/12/25 00:35:16;;;;;;;;;;;;;;;;;;1047912;28;829;-41
2021/12/25 00:35:47;;;;;;;;;;;;;;;;;;1047853;28;849;-41
2021/12/25 00:36:19;;;;;;;;;;;;;;;;;;1048157;28;941;-42
2021/12/25 00:36:50;;;;;;;;;;;;;;;;;;1048189;28;945;-41
2021/12/25 00:37:20;;;;;;;;;;;;;;;;;;1048205;28;929;-41
2021/12/25 00:37:51;;;;;;;;;;;;;;;;;;1048123;28;917;-41
2021/12/25 00:38:24;;;;;;;;;;;;;;;;;;1047705;28;1162;-41
2021/12/25 00:38:55;;;;;;;;;;;;;;;;;;1054834;28;1170;-41
2021/12/25 00:39:29;;;;;;;;;;;;;;;;;;1052069;28;1642;-41
2021/12/25 00:39:59;;;;;;;;;;;;;;;;;;1051962;28;948;-41
2021/12/25 00:40:30;;;;;;;;;;;;;;;;;;1051975;28;949;-41
2021/12/25 00:41:00;;;;;;;;;;;;;;;;;;1052755;28;1064;-41
2021/12/25 00:41:31;;;;;;;;;;;;;;;;;;1056517;28;1349;-41
2021/12/25 00:42:02;;;;;;;;;;;;;;;;;;1056273;28;930;-41
2021/12/25 00:42:32;;;;;;;;;;;;;;;;;;1056026;28;810;-41
2021/12/25 00:43:04;;;;;;;;;;;;;;;;;;1055472;28;881;-41
2021/12/25 00:43:34;;;;;;;;;;;;;;;;;;1051860;28;953;-41
2021/12/25 00:44:05;;;;;;;;;;;;;;;;;;1052033;28;1342;-41
2021/12/25 00:44:35;;;;;;;;;;;;;;;;;;1051892;28;992;-41
2021/12/25 00:45:06;;;;;;;;;;;;;;;;;;1047773;28;1281;-42
2021/12/25 00:45:37;;;;;;;;;;;;;;;;;;1047955;28;925;-41
2021/12/25 00:46:07;;;;;;;;;;;;;;;;;;1052168;28;1222;-41
2021/12/25 00:46:38;;;;;;;;;;;;;;;;;;1051763;28;957;-41
2021/12/25 00:47:08;;;;;;;;;;;;;;;;;;1052567;28;873;-41
2021/12/25 00:47:39;;;;;;;;;;;;;;;;;;1052292;28;810;-41
2021/12/25 00:48:09;;;;;;;;;;;;;;;;;;1052396;28;1375;-41
2021/12/25 00:48:39;;;;;;;;;;;;;;;;;;1051871;28;1282;-41
2021/12/25 00:49:10;;;;;;;;;;;;;;;;;;1051864;28;930;-41
2021/12/25 00:49:40;;;;;;;;;;;;;;;;;;1052077;28;972;-42
2021/12/25 00:50:13;;;;;;;;;;;;;;;;;;1051847;28;1158;-41
2021/12/25 00:50:44;;;;;;;;;;;;;;;;;;1051952;28;775;-41
2021/12/25 00:51:14;;;;;;;;;;;;;;;;;;1052041;28;918;-41
2021/12/25 00:51:45;;;;;;;;;;;;;;;;;;1051912;28;913;-41
2021/12/25 00:52:15;;;;;;;;;;;;;;;;;;1052442;28;917;-41
2021/12/25 00:52:45;;;;;;;;;;;;;;;;;;1051834;28;1283;-42
2021/12/25 00:53:16;;;;;;;;;;;;;;;;;;1051954;28;834;-41
2021/12/25 00:53:46;;;;;;;;;;;;;;;;;;1052021;28;929;-41
2021/12/25 00:54:17;;;;;;;;;;;;;;;;;;1051926;28;1980;-41
2021/12/25 00:54:47;;;;;;;;;;;;;;;;;;1051875;28;1558;-42
2021/12/25 00:55:18;;;;;;;;;;;;;;;;;;1051937;28;1533;-41
2021/12/25 00:55:48;;;;;;;;;;;;;;;;;;1051923;28;846;-41
2021/12/25 00:56:18;;;;;;;;;;;;;;;;;;1047756;28;960;-41
2021/12/25 00:56:49;;;;;;;;;;;;;;;;;;1051867;28;1012;-42
2021/12/25 00:57:19;;;;;;;;;;;;;;;;;;1051964;28;1597;-41
2021/12/25 00:57:50;;;;;;;;;;;;;;;;;;1051944;28;893;-41
2021/12/25 00:58:20;;;;;;;;;;;;;;;;;;1052306;28;870;-41
2021/12/25 00:58:50;;;;;;;;;;;;;;;;;;1052315;28;825;-41
2021/12/25 00:59:21;;;;;;;;;;;;;;;;;;1051885;28;825;-42
2021/12/25 00:59:52;;;;;;;;;;;;;;;;;;1047556;28;885;-41
2021/12/25 01:00:23;;;;;;;;;;;;;;;;;;1047754;28;873;-42
2021/12/25 01:00:53;;;;;;;;;;;;;;;;;;1047643;28;830;-42
2021/12/25 01:01:25;;;;;;;;;;;;;;;;;;1043885;28;778;-42
2021/12/25 01:01:58;;;;;;;;;;;;;;;;;;1043552;28;937;-42
2021/12/25 01:02:28;;;;;;;;;;;;;;;;;;1039373;28;1335;-41
2021/12/25 01:02:59;;;;;;;;;;;;;;;;;;1039874;28;790;-41
2021/12/25 01:03:29;;;;;;;;;;;;;;;;;;1039672;28;1156;-41
2021/12/25 01:04:00;;;;;;;;;;;;;;;;;;1039446;28;1243;-41
2021/12/25 01:04:31;;;;;;;;;;;;;;;;;;1039560;28;987;-41
2021/12/25 01:05:02;;;;;;;;;;;;;;;;;;1043675;28;1195;-41
2021/12/25 01:05:33;;;;;;;;;;;;;;;;;;1043772;28;1484;-41
2021/12/25 01:06:06;;;;;;;;;;;;;;;;;;1042985;28;1190;-41
2021/12/25 01:06:37;;;;;;;;;;;;;;;;;;1039395;28;1261;-41
2021/12/25 01:07:10;;;;;;;;;;;;;;;;;;1035965;28;1483;-42
2021/12/25 01:07:41;;;;;;;;;;;;;;;;;;1039839;28;2287;-41
2021/12/25 01:08:15;;;;;;;;;;;;;;;;;;1040591;28;1517;-42
2021/12/25 01:08:47;;;;;;;;;;;;;;;;;;1040154;28;1738;-41
2021/12/25 01:09:22;;;;;;;;;;;;;;;;;;1039503;28;1282;-42
2021/12/25 01:09:53;;;;;;;;;;;;;;;;;;1039395;28;1306;-41
2021/12/25 01:10:25;;;;;;;;;;;;;;;;;;1039358;28;1172;-41
2021/12/25 01:10:57;;;;;;;;;;;;;;;;;;1039829;28;1579;-42
2021/12/25 01:11:30;;;;;;;;;;;;;;;;;;1039947;28;1309;-41
2021/12/25 01:12:00;;;;;;;;;;;;;;;;;;1043992;28;838;-42
2021/12/25 01:12:52;;;;;;;;;;;;;;;;;;1047695;28;1423;-41
2021/12/25 01:13:27;;;;;;;;;;;;;;;;;;1046817;28;1494;-41
2021/12/25 01:14:06;;;;;;;;;;;;;;;;;;1043248;28;1465;-42
2021/12/25 01:15:05;;;;;;;;;;;;;;;;;;1036201;28;1034;-41
2021/12/25 01:17:06;;;;;;;;;;;;;;;;;;1047632;28;1171;-41
2021/12/25 01:18:03;;;;;;;;;;;;;;;;;;1047424;28;1476;-40
2021/12/25 01:20:16;;;;;;;;;;;;;;;;;;1044477;28;1162;-41
2021/12/25 01:25:33;;;;;;;;;;;;;;;;;;1043447;28;1318;-41
2021/12/25 01:31:21;;;;;;;;;;;;;;;;;;1045176;28;1205;-41
2021/12/25 01:35:30;;;;;;;;;;;;;;;;;;1040932;28;1022;-42
2021/12/25 01:36:31;;;;;;;;;;;;;;;;;;1048045;28;655;-42
2021/12/25 01:37:58;;;;;;;;;;;;;;;;;;1043134;28;1138;-41
2021/12/25 01:39:20;;;;;;;;;;;;;;;;;;1039060;28;1174;-41
2021/12/25 01:41:28;;;;;;;;;;;;;;;;;;1034808;28;1193;-41
2021/12/25 01:47:54;;;;;;;;;;;;;;;;;;1050846;28;1218;-41
2021/12/25 01:48:25;;;;;;;;;;;;;;;;;;1047579;28;1175;-41
2021/12/25 01:48:56;;;;;;;;;;;;;;;;;;1047445;28;964;-41
2021/12/25 01:49:27;;;;;;;;;;;;;;;;;;1043547;28;1159;-41
2021/12/25 01:49:59;;;;;;;;;;;;;;;;;;1047741;28;893;-41
2021/12/25 01:50:30;;;;;;;;;;;;;;;;;;1051795;28;886;-41
2021/12/25 01:51:00;;;;;;;;;;;;;;;;;;1051739;28;1611;-41
2021/12/25 01:51:31;;;;;;;;;;;;;;;;;;1051566;28;1265;-41
2021/12/25 01:52:02;;;;;;;;;;;;;;;;;;1051637;28;1209;-41
2021/12/25 01:52:33;;;;;;;;;;;;;;;;;;1051807;28;929;-41
2021/12/25 01:53:03;;;;;;;;;;;;;;;;;;1047347;28;1503;-41
2021/12/25 01:53:34;;;;;;;;;;;;;;;;;;1047903;28;801;-41
2021/12/25 01:54:04;;;;;;;;;;;;;;;;;;1047399;28;1988;-41
2021/12/25 01:54:34;;;;;;;;;;;;;;;;;;1043437;28;1268;-42
2021/12/25 01:55:10;;;;;;;;;;;;;;;;;;1043444;28;1489;-41
2021/12/25 01:55:40;;;;;;;;;;;;;;;;;;1039887;28;1422;-41
2021/12/25 01:56:11;;;;;;;;;;;;;;;;;;1039870;28;1237;-41
2021/12/25 01:56:41;;;;;;;;;;;;;;;;;;1040050;28;1363;-41
2021/12/25 01:57:12;;;;;;;;;;;;;;;;;;1039192;28;1347;-41
2021/12/25 01:57:42;;;;;;;;;;;;;;;;;;1039338;28;831;-41
2021/12/25 01:58:12;;;;;;;;;;;;;;;;;;1043127;28;1255;-41
2021/12/25 01:58:43;;;;;;;;;;;;;;;;;;1039307;28;1145;-41
2021/12/25 01:59:13;;;;;;;;;;;;;;;;;;1043434;28;925;-41
2021/12/25 01:59:44;;;;;;;;;;;;;;;;;;1039205;28;1256;-41
2021/12/25 02:00:17;;;;;;;;;;;;;;;;;;1039206;28;1130;-41
2021/12/25 02:00:49;;;;;;;;;;;;;;;;;;1047489;28;893;-42
2021/12/25 02:01:20;;;;;;;;;;;;;;;;;;1048186;28;1229;-40
2021/12/25 02:01:50;;;;;;;;;;;;;;;;;;1051780;28;874;-41
2021/12/25 02:02:21;;;;;;;;;;;;;;;;;;1051524;28;1325;-40
2021/12/25 02:02:52;;;;;;;;;;;;;;;;;;1051761;28;541;-41
2021/12/25 02:03:24;;;;;;;;;;;;;;;;;;1047388;28;1319;-41
2021/12/25 02:03:54;;;;;;;;;;;;;;;;;;1043785;28;1284;-41
2021/12/25 02:04:25;;;;;;;;;;;;;;;;;;1047362;28;973;-41
2021/12/25 02:04:55;;;;;;;;;;;;;;;;;;1047727;28;999;-41
2021/12/25 02:05:26;;;;;;;;;;;;;;;;;;1047525;28;1269;-40
2021/12/25 02:05:58;;;;;;;;;;;;;;;;;;1051678;28;1130;-41
2021/12/25 02:06:35;;;;;;;;;;;;;;;;;;1047373;28;1491;-41
2021/12/25 02:07:05;;;;;;;;;;;;;;;;;;1047494;28;1004;-40
2021/12/25 02:07:36;;;;;;;;;;;;;;;;;;1044282;28;1159;-41
2021/12/25 02:08:06;;;;;;;;;;;;;;;;;;1043233;28;1136;-41
2021/12/25 02:08:37;;;;;;;;;;;;;;;;;;1043392;28;818;-41
2021/12/25 02:09:08;;;;;;;;;;;;;;;;;;1043433;28;976;-41
2021/12/25 02:09:39;;;;;;;;;;;;;;;;;;1043615;28;1243;-41
2021/12/25 02:10:09;;;;;;;;;;;;;;;;;;1043405;28;1357;-40
2021/12/25 02:10:40;;;;;;;;;;;;;;;;;;1043285;28;1187;-41
2021/12/25 02:11:11;;;;;;;;;;;;;;;;;;1043388;28;1253;-41
2021/12/25 02:11:43;;;;;;;;;;;;;;;;;;1043110;28;1143;-41
2021/12/25 02:12:15;;;;;;;;;;;;;;;;;;1039662;28;1346;-41
2021/12/25 02:12:48;;;;;;;;;;;;;;;;;;1039628;28;1208;-41
2021/12/25 02:13:19;;;;;;;;;;;;;;;;;;1044016;28;787;-41
2021/12/25 02:13:49;;;;;;;;;;;;;;;;;;1047980;28;1065;-40
2021/12/25 02:14:24;;;;;;;;;;;;;;;;;;1048062;28;2046;-41
2021/12/25 02:14:56;;;;;;;;;;;;;;;;;;1051630;28;1175;-42
2021/12/25 02:15:28;;;;;;;;;;;;;;;;;;1051606;28;929;-40
2021/12/25 02:16:13;;;;;;;;;;;;;;;;;;1051541;28;1081;-41
2021/12/25 02:17:02;;;;;;;;;;;;;;;;;;1047350;28;1120;-40
2021/12/25 02:19:02;;;;;;;;;;;;;;;;;;1038603;28;1094;-40
2021/12/25 02:19:53;;;;;;;;;;;;;;;;;;1051561;28;1186;-41
2021/12/25 02:20:30;;;;;;;;;;;;;;;;;;1051494;28;1011;-40
2021/12/25 02:21:11;;;;;;;;;;;;;;;;;;1051661;28;755;-41
2021/12/25 02:21:42;;;;;;;;;;;;;;;;;;1050793;28;1195;-41
2021/12/25 02:22:13;;;;;;;;;;;;;;;;;;1051693;28;790;-41
2021/12/25 02:22:46;;;;;;;;;;;;;;;;;;1047144;28;1243;-41
2021/12/25 02:23:21;;;;;;;;;;;;;;;;;;1047859;28;846;-41
2021/12/25 02:23:53;;;;;;;;;;;;;;;;;;1051157;28;945;-41
2021/12/25 02:24:24;;;;;;;;;;;;;;;;;;1051666;28;961;-41
2021/12/25 02:24:54;;;;;;;;;;;;;;;;;;1052111;28;850;-41
2021/12/25 02:25:24;;;;;;;;;;;;;;;;;;1051332;28;1269;-41
2021/12/25 02:25:56;;;;;;;;;;;;;;;;;;1047457;28;1140;-40
2021/12/25 02:26:27;;;;;;;;;;;;;;;;;;1043175;28;1447;-41
2021/12/25 02:26:57;;;;;;;;;;;;;;;;;;1043167;28;1108;-41
2021/12/25 02:27:30;;;;;;;;;;;;;;;;;;1043569;28;1130;-41
2021/12/25 02:28:01;;;;;;;;;;;;;;;;;;1047454;28;810;-41
2021/12/25 02:28:31;;;;;;;;;;;;;;;;;;1043487;28;1318;-41
2021/12/25 02:29:02;;;;;;;;;;;;;;;;;;1043377;28;1388;-40
2021/12/25 02:29:33;;;;;;;;;;;;;;;;;;1047280;28;783;-40
2021/12/25 02:30:05;;;;;;;;;;;;;;;;;;1043348;28;1147;-41
2021/12/25 02:30:36;;;;;;;;;;;;;;;;;;1047766;28;921;-41
2021/12/25 02:31:08;;;;;;;;;;;;;;;;;;1047339;28;1167;-41
2021/12/25 02:31:38;;;;;;;;;;;;;;;;;;1043562;28;1112;-41
2021/12/25 02:32:09;;;;;;;;;;;;;;;;;;1047282;28;1152;-41
2021/12/25 02:32:44;;;;;;;;;;;;;;;;;;1043822;28;1242;-41
2021/12/25 02:33:16;;;;;;;;;;;;;;;;;;1048129;28;787;-44
2021/12/25 02:33:47;;;;;;;;;;;;;;;;;;1047263;28;1222;-41
2021/12/25 02:34:17;;;;;;;;;;;;;;;;;;1047872;28;2044;-41
2021/12/25 02:34:49;;;;;;;;;;;;;;;;;;1047243;28;1358;-41
2021/12/25 02:35:20;;;;;;;;;;;;;;;;;;1043575;28;966;-41
2021/12/25 02:35:50;;;;;;;;;;;;;;;;;;1043002;28;1035;-41
2021/12/25 02:36:21;;;;;;;;;;;;;;;;;;1039442;28;1278;-41
2021/12/25 02:36:51;;;;;;;;;;;;;;;;;;1047340;28;1291;-40
2021/12/25 02:37:22;;;;;;;;;;;;;;;;;;1051539;28;790;-40
2021/12/25 02:37:53;;;;;;;;;;;;;;;;;;1047281;28;1339;-41
2021/12/25 02:38:24;;;;;;;;;;;;;;;;;;1043274;28;1167;-41
2021/12/25 02:38:55;;;;;;;;;;;;;;;;;;1050939;28;1135;-42
2021/12/25 02:39:25;;;;;;;;;;;;;;;;;;1051873;28;980;-41
2021/12/25 02:39:56;;;;;;;;;;;;;;;;;;1055606;28;985;-41
2021/12/25 02:40:26;;;;;;;;;;;;;;;;;;1055644;28;1131;-40
2021/12/25 02:40:57;;;;;;;;;;;;;;;;;;1051467;28;1281;-40
2021/12/25 02:41:28;;;;;;;;;;;;;;;;;;1051512;28;830;-41
2021/12/25 02:41:58;;;;;;;;;;;;;;;;;;1051665;28;950;-41
2021/12/25 02:42:29;;;;;;;;;;;;;;;;;;1055656;28;783;-41
2021/12/25 02:42:59;;;;;;;;;;;;;;;;;;1055776;28;1206;-41
2021/12/25 02:43:29;;;;;;;;;;;;;;;;;;1055708;28;948;-40
2021/12/25 02:44:00;;;;;;;;;;;;;;;;;;1051383;28;1282;-42
2021/12/25 02:44:40;;;;;;;;;;;;;;;;;;1052859;28;1495;-41
2021/12/25 02:45:16;;;;;;;;;;;;;;;;;;1051422;28;929;-40
2021/12/25 02:45:46;;;;;;;;;;;;;;;;;;1047239;28;1163;-41
2021/12/25 02:46:17;;;;;;;;;;;;;;;;;;1048235;28;988;-41
2021/12/25 02:46:52;;;;;;;;;;;;;;;;;;1047966;28;1342;-41
2021/12/25 02:47:23;;;;;;;;;;;;;;;;;;1048139;28;1136;-40
2021/12/25 02:47:55;;;;;;;;;;;;;;;;;;1047219;28;1370;-41
2021/12/25 02:48:27;;;;;;;;;;;;;;;;;;1043181;28;1178;-41
2021/12/25 02:48:59;;;;;;;;;;;;;;;;;;1043542;28;1180;-41
2021/12/25 02:49:29;;;;;;;;;;;;;;;;;;1047291;28;1250;-41
2021/12/25 02:49:59;;;;;;;;;;;;;;;;;;1047574;28;909;-41
2021/12/25 02:50:31;;;;;;;;;;;;;;;;;;1051539;28;782;-41
2021/12/25 02:51:02;;;;;;;;;;;;;;;;;;1051601;28;1164;-41
2021/12/25 02:51:32;;;;;;;;;;;;;;;;;;1055818;28;968;-41
2021/12/25 02:52:05;;;;;;;;;;;;;;;;;;1051285;28;1148;-40
2021/12/25 02:52:36;;;;;;;;;;;;;;;;;;1047792;28;1163;-41
2021/12/25 02:53:07;;;;;;;;;;;;;;;;;;1051451;28;885;-41
2021/12/25 02:53:39;;;;;;;;;;;;;;;;;;1052211;28;795;-43
2021/12/25 02:54:10;;;;;;;;;;;;;;;;;;1055648;28;1938;-40
2021/12/25 02:54:40;;;;;;;;;;;;;;;;;;1056029;28;790;-41
2021/12/25 02:55:11;;;;;;;;;;;;;;;;;;1055746;28;1107;-41
2021/12/25 02:55:42;;;;;;;;;;;;;;;;;;1055610;28;766;-40
2021/12/25 02:56:14;;;;;;;;;;;;;;;;;;1051595;28;1504;-41
2021/12/25 02:56:47;;;;;;;;;;;;;;;;;;1047868;28;1211;-40
2021/12/25 02:57:17;;;;;;;;;;;;;;;;;;1047350;28;1300;-41
2021/12/25 02:57:52;;;;;;;;;;;;;;;;;;1047869;28;838;-41
2021/12/25 02:58:24;;;;;;;;;;;;;;;;;;1048041;28;1315;-41
2021/12/25 02:58:54;;;;;;;;;;;;;;;;;;1048039;28;1424;-41
2021/12/25 02:59:25;;;;;;;;;;;;;;;;;;1051556;28;925;-41
2021/12/25 02:59:55;;;;;;;;;;;;;;;;;;1051479;28;909;-41
2021/12/25 03:00:27;;;;;;;;;;;;;;;;;;1055768;28;806;-41
2021/12/25 03:01:02;;;;;;;;;;;;;;;;;;1055497;28;1159;-41
2021/12/25 03:01:32;;;;;;;;;;;;;;;;;;1047574;28;1141;-41
2021/12/25 03:02:04;;;;;;;;;;;;;;;;;;1047229;28;845;-41
2021/12/25 03:02:35;;;;;;;;;;;;;;;;;;1044002;28;1215;-41
2021/12/25 03:03:07;;;;;;;;;;;;;;;;;;1043068;28;1162;-41
2021/12/25 03:03:38;;;;;;;;;;;;;;;;;;1039092;28;1231;-41
2021/12/25 03:04:09;;;;;;;;;;;;;;;;;;1038884;28;1583;-42
2021/12/25 03:04:42;;;;;;;;;;;;;;;;;;1035509;28;826;-41
2021/12/25 03:05:12;;;;;;;;;;;;;;;;;;1035202;28;807;-41
2021/12/25 03:05:43;;;;;;;;;;;;;;;;;;1039418;28;1250;-41
2021/12/25 03:06:14;;;;;;;;;;;;;;;;;;1043724;28;952;-41
2021/12/25 03:06:45;;;;;;;;;;;;;;;;;;1043263;28;1470;-41
2021/12/25 03:07:16;;;;;;;;;;;;;;;;;;1043198;28;838;-41
2021/12/25 03:07:47;;;;;;;;;;;;;;;;;;1038844;28;1371;-41
2021/12/25 03:08:18;;;;;;;;;;;;;;;;;;1039150;28;787;-41
2021/12/25 03:08:59;;;;;;;;;;;;;;;;;;1036724;28;1165;-42
2021/12/25 03:09:30;;;;;;;;;;;;;;;;;;1040578;28;803;-42
2021/12/25 03:10:00;;;;;;;;;;;;;;;;;;1044824;28;934;-42
2021/12/25 03:10:33;;;;;;;;;;;;;;;;;;1047189;28;1353;-42
2021/12/25 03:11:06;;;;;;;;;;;;;;;;;;1047190;28;1166;-41
2021/12/25 03:11:37;;;;;;;;;;;;;;;;;;1043111;28;846;-41
2021/12/25 03:12:09;;;;;;;;;;;;;;;;;;1043031;28;814;-41
2021/12/25 03:12:53;;;;;;;;;;;;;;;;;;1039778;28;1314;-41
2021/12/25 03:13:33;;;;;;;;;;;;;;;;;;1040914;28;1112;-41
2021/12/25 03:14:30;;;;;;;;;;;;;;;;;;1042852;28;1078;-41
2021/12/25 03:15:45;;;;;;;;;;;;;;;;;;1043048;28;1325;-41
2021/12/25 03:16:15;;;;;;;;;;;;;;;;;;1039033;28;1652;-42
2021/12/25 03:16:46;;;;;;;;;;;;;;;;;;1040884;28;917;-41
2021/12/25 03:17:17;;;;;;;;;;;;;;;;;;1040777;28;1151;-41
2021/12/25 03:17:47;;;;;;;;;;;;;;;;;;1038972;28;1307;-41
2021/12/25 03:18:18;;;;;;;;;;;;;;;;;;1042954;28;1294;-41
2021/12/25 03:18:51;;;;;;;;;;;;;;;;;;1039024;28;1144;-41
2021/12/25 03:19:29;;;;;;;;;;;;;;;;;;1038997;28;1243;-41
2021/12/25 03:20:00;;;;;;;;;;;;;;;;;;1036179;28;787;-43
2021/12/25 03:20:30;;;;;;;;;;;;;;;;;;1040654;28;893;-41
2021/12/25 03:21:03;;;;;;;;;;;;;;;;;;1048268;28;1409;-41
2021/12/25 03:21:33;;;;;;;;;;;;;;;;;;1047386;28;1163;-41
2021/12/25 03:22:04;;;;;;;;;;;;;;;;;;1047170;28;862;-40
2021/12/25 03:22:35;;;;;;;;;;;;;;;;;;1043089;28;1258;-41
2021/12/25 03:23:06;;;;;;;;;;;;;;;;;;1043229;28;917;-41
2021/12/25 03:23:37;;;;;;;;;;;;;;;;;;1047436;28;1168;-40
2021/12/25 03:24:07;;;;;;;;;;;;;;;;;;1051234;28;834;-41
2021/12/25 03:24:37;;;;;;;;;;;;;;;;;;1051647;28;802;-41
2021/12/25 03:25:09;;;;;;;;;;;;;;;;;;1051330;28;794;-41
2021/12/25 03:25:39;;;;;;;;;;;;;;;;;;1051517;28;1973;-41
2021/12/25 03:26:10;;;;;;;;;;;;;;;;;;1051140;28;865;-41
2021/12/25 03:26:41;;;;;;;;;;;;;;;;;;1047289;28;1329;-41
2021/12/25 03:27:11;;;;;;;;;;;;;;;;;;1043037;28;1167;-41
2021/12/25 03:27:42;;;;;;;;;;;;;;;;;;1043103;28;953;-41
2021/12/25 03:28:13;;;;;;;;;;;;;;;;;;1043160;28;1425;-41
2021/12/25 03:28:45;;;;;;;;;;;;;;;;;;1047212;28;1260;-41
2021/12/25 03:29:17;;;;;;;;;;;;;;;;;;1043033;28;1270;-41
2021/12/25 03:29:47;;;;;;;;;;;;;;;;;;1039466;28;1271;-41
2021/12/25 03:30:21;;;;;;;;;;;;;;;;;;1043499;28;1177;-41
2021/12/25 03:30:52;;;;;;;;;;;;;;;;;;1043655;28;866;-41
2021/12/25 03:31:22;;;;;;;;;;;;;;;;;;1043049;28;894;-41
2021/12/25 03:31:53;;;;;;;;;;;;;;;;;;1039444;28;1321;-41
2021/12/25 03:32:24;;;;;;;;;;;;;;;;;;1043257;28;754;-42
2021/12/25 03:32:55;;;;;;;;;;;;;;;;;;1043250;28;1125;-42
2021/12/25 03:33:26;;;;;;;;;;;;;;;;;;1047364;28;1016;-41
2021/12/25 03:33:57;;;;;;;;;;;;;;;;;;1047299;28;1191;-41
2021/12/25 03:34:27;;;;;;;;;;;;;;;;;;1047274;28;1903;-42
2021/12/25 03:34:57;;;;;;;;;;;;;;;;;;1051529;28;782;-41
2021/12/25 03:35:29;;;;;;;;;;;;;;;;;;1047349;28;1416;-41
2021/12/25 03:36:01;;;;;;;;;;;;;;;;;;1051857;28;956;-41
2021/12/25 03:36:32;;;;;;;;;;;;;;;;;;1052341;28;794;-41
2021/12/25 03:37:02;;;;;;;;;;;;;;;;;;1052206;28;913;-42
2021/12/25 03:37:33;;;;;;;;;;;;;;;;;;1052356;28;1479;-42
2021/12/25 03:38:05;;;;;;;;;;;;;;;;;;1052123;28;1385;-42
2021/12/25 03:38:35;;;;;;;;;;;;;;;;;;1053020;28;1178;-41
2021/12/25 03:39:07;;;;;;;;;;;;;;;;;;1052216;28;1481;-42
2021/12/25 03:39:38;;;;;;;;;;;;;;;;;;1048475;28;1163;-41
2021/12/25 03:40:09;;;;;;;;;;;;;;;;;;1047965;28;1277;-42
2021/12/25 03:40:39;;;;;;;;;;;;;;;;;;1044123;28;1176;-41
2021/12/25 03:41:10;;;;;;;;;;;;;;;;;;1048022;28;861;-41
2021/12/25 03:41:41;;;;;;;;;;;;;;;;;;1048334;28;872;-41
2021/12/25 03:42:11;;;;;;;;;;;;;;;;;;1048155;28;1167;-41
2021/12/25 03:42:43;;;;;;;;;;;;;;;;;;1052188;28;1167;-42
2021/12/25 03:43:14;;;;;;;;;;;;;;;;;;1052283;28;1023;-41
2021/12/25 03:43:45;;;;;;;;;;;;;;;;;;1052250;28;952;-41
2021/12/25 03:44:16;;;;;;;;;;;;;;;;;;1052637;28;1346;-41
2021/12/25 03:44:46;;;;;;;;;;;;;;;;;;1056432;28;995;-41
2021/12/25 03:45:17;;;;;;;;;;;;;;;;;;1052114;28;1170;-44
2021/12/25 03:45:48;;;;;;;;;;;;;;;;;;1048141;28;1253;-41
2021/12/25 03:46:19;;;;;;;;;;;;;;;;;;1047986;28;1317;-42
2021/12/25 03:46:50;;;;;;;;;;;;;;;;;;1048082;28;1222;-41
2021/12/25 03:47:27;;;;;;;;;;;;;;;;;;1052129;28;794;-41
2021/12/25 03:48:57;;;;;;;;;;;;;;;;;;1048957;28;1194;-42
2021/12/25 03:49:28;;;;;;;;;;;;;;;;;;1052035;28;1318;-42
2021/12/25 03:53:25;;;;;;;;;;;;;;;;;;1056233;28;1358;-41
2021/12/25 03:58:11;;;;;;;;;;;;;;;;;;1056185;28;1312;-41
2021/12/25 03:58:42;;;;;;;;;;;;;;;;;;1052152;28;1536;-41
2021/12/25 03:59:13;;;;;;;;;;;;;;;;;;1047973;28;1301;-42
2021/12/25 03:59:55;;;;;;;;;;;;;;;;;;1044565;28;1159;-41
2021/12/25 04:00:30;;;;;;;;;;;;;;;;;;1045804;28;1341;-41
2021/12/25 04:01:13;;;;;;;;;;;;;;;;;;1050406;28;834;-42
2021/12/25 04:02:20;;;;;;;;;;;;;;;;;;1050254;28;818;-41
2021/12/25 04:02:55;;;;;;;;;;;;;;;;;;1052130;28;867;-41
2021/12/25 04:03:50;;;;;;;;;;;;;;;;;;1051026;28;1321;-41
2021/12/25 04:04:36;;;;;;;;;;;;;;;;;;1047999;28;1234;-41
2021/12/25 04:05:14;;;;;;;;;;;;;;;;;;1047696;28;1124;-41
2021/12/25 04:05:46;;;;;;;;;;;;;;;;;;1047908;28;1329;-41
2021/12/25 04:06:17;;;;;;;;;;;;;;;;;;1047850;28;817;-41
2021/12/25 04:06:55;;;;;;;;;;;;;;;;;;1045254;28;1217;-41
2021/12/25 04:08:15;;;;;;;;;;;;;;;;;;1047889;28;818;-40
2021/12/25 04:08:47;;;;;;;;;;;;;;;;;;1047256;28;1234;-40
2021/12/25 04:09:29;;;;;;;;;;;;;;;;;;1050844;28;992;-40
2021/12/25 04:10:03;;;;;;;;;;;;;;;;;;1047940;28;1131;-40
2021/12/25 04:10:42;;;;;;;;;;;;;;;;;;1046033;28;1166;-40
2021/12/25 04:11:24;;;;;;;;;;;;;;;;;;1047971;28;945;-41
2021/12/25 04:11:56;;;;;;;;;;;;;;;;;;1048010;28;1283;-41
2021/12/25 04:12:27;;;;;;;;;;;;;;;;;;1046741;28;1156;-41
2021/12/25 04:12:57;;;;;;;;;;;;;;;;;;1043678;28;1129;-40
2021/12/25 04:13:28;;;;;;;;;;;;;;;;;;1044056;28;806;-40
2021/12/25 04:13:58;;;;;;;;;;;;;;;;;;1042690;28;1216;-41
2021/12/25 04:14:32;;;;;;;;;;;;;;;;;;1048199;28;1969;-40
2021/12/25 04:15:03;;;;;;;;;;;;;;;;;;1047973;28;1167;-42
2021/12/25 04:15:34;;;;;;;;;;;;;;;;;;1047811;28;1396;-40
2021/12/25 04:16:05;;;;;;;;;;;;;;;;;;1043729;28;1159;-41
2021/12/25 04:16:35;;;;;;;;;;;;;;;;;;1043887;28;1255;-41
2021/12/25 04:17:06;;;;;;;;;;;;;;;;;;1047855;28;1163;-41
2021/12/25 04:17:37;;;;;;;;;;;;;;;;;;1051994;28;1232;-41
2021/12/25 04:18:08;;;;;;;;;;;;;;;;;;1047753;28;1372;-41
2021/12/25 04:18:38;;;;;;;;;;;;;;;;;;1041467;28;1222;-42
2021/12/25 04:19:09;;;;;;;;;;;;;;;;;;1035670;28;1192;-41
2021/12/25 04:19:39;;;;;;;;;;;;;;;;;;1035596;28;1250;-41
2021/12/25 04:20:12;;;;;;;;;;;;;;;;;;1035773;28;1455;-41
2021/12/25 04:20:42;;;;;;;;;;;;;;;;;;1035780;28;1132;-41
2021/12/25 04:21:12;;;;;;;;;;;;;;;;;;1039597;28;1142;-41
2021/12/25 04:21:55;;;;;;;;;;;;;;;;;;1035681;28;1364;-40
2021/12/25 04:22:32;;;;;;;;;;;;;;;;;;1041061;28;1136;-41
2021/12/25 04:23:08;;;;;;;;;;;;;;;;;;1046270;28;811;-41
2021/12/25 04:23:41;;;;;;;;;;;;;;;;;;1051154;28;846;-41
2021/12/25 04:24:11;;;;;;;;;;;;;;;;;;1047922;28;1313;-41
2021/12/25 04:24:43;;;;;;;;;;;;;;;;;;1043535;28;1334;-41
2021/12/25 04:25:19;;;;;;;;;;;;;;;;;;1039594;28;1462;-41
2021/12/25 04:25:50;;;;;;;;;;;;;;;;;;1040788;28;842;-41
2021/12/25 04:26:23;;;;;;;;;;;;;;;;;;1044728;28;933;-42
2021/12/25 04:26:53;;;;;;;;;;;;;;;;;;1049062;28;1305;-41
2021/12/25 04:27:23;;;;;;;;;;;;;;;;;;1047629;28;878;-41